Umea Robacksdalen, Sweden

1:32 PM CEST on October 24, 2014 (GMT +0200)
Mariedal | Change Station
CLOSE
Current Station
Personal Weather Station
Location: Umeå, VäSTERBOTTEN
Elevation: 125 ft
Nearby Weather Stations

Elev 125 ft 63.85 °N, 20.31 °E | Updated 1 second ago

Rain
Rain
42.6 °F
Feels Like 34 °F
N
20.1
Wind Variable Wind from SSE
Gusts 34.9 mph

Today
High -- | Low -- °F
--% Chance of Precip.
Yesterday
High -- | Low -- °F
Precip. -- in
7:54 AM 4:50 PM
New Moon, 0% visible
Pressure 30.01 in
Visibility 3.7 miles
Clouds Overcast 800 ft
Windchill 34 °F
Dew Point 42 °F
Humidity 99%
Rainfall 0.66 in
Snow Depth Not available.
UV 0 out of 12
Pollen Not available.
Air Quality Not available.
Flu Activity Not available.
METAR ESNU 241120Z 18020G30KT 6000 RA OVC008 06/05 Q1016 R14/29//70

More Conditions Fewer Conditions

Pressure 30.01 in
Visibility 3.7 miles
Clouds Overcast 800 ft
Windchill 34 °F
Dew Point 42 °F
Humidity 99%
Rainfall 0.66 in
Snow Depth Not available.
UV 0 out of 12
Pollen Not available.
Air Quality Not available.
Flu Activity Not available.
METAR ESNU 241120Z 18020G30KT 6000 RA OVC008 06/05 Q1016 R14/29//70

More Conditions Fewer Conditions

10-Day Weather Forecast

Almanac

Astronomy

Oct. 24, 2014 Rise Set
Actual Time 7:54 AM CEST 4:50 PM CEST
Civil Twilight 7:04 AM CEST 5:40 PM CEST
Nautical Twilight 6:09 AM CEST 6:35 PM CEST
Astronomical Twilight 5:14 AM CEST 7:29 PM CEST
Moon 8:22 AM CEST 5:05 PM CEST
Length of Visible Light 10h 35m
Length of Day
8h 55m
Tomorrow will be 6m 23s shorter.
New Moon, 0% of the Moon is Illuminated
Today
New Moon
Oct 30
First Quarter
Nov 6
Full
Nov 14
Last Quarter
Nov 22
New

Yesterday's Extremes

Country Highs Country Lows

Community

WunderPhotos

Upload Photos

1,764,525 photos uploaded!

WunderBlogs® & News

Nearby

Snow Depth

Not available.

Earthquake Activity

City Distance Mag. Time & Date
No recent earthquake activity has been reported nearby.
Minimum magnitude displayed is 2.5.

Coastal Water Temperatures

Place Temperature
No Stations Reporting

Nearby Weather Stations